createdAt,value
2023-04-27T00:00:18.215Z,947.00
2023-04-27T00:01:18.134Z,978.00
2023-04-27T00:02:18.314Z,937.00
2023-04-27T00:03:18.258Z,980.00
2023-04-27T00:04:18.383Z,982.00
2023-04-27T00:05:18.274Z,951.00
2023-04-27T00:06:18.124Z,950.00
2023-04-27T00:07:18.064Z,926.00
2023-04-27T00:08:18.053Z,939.00
2023-04-27T00:09:18.035Z,958.00
2023-04-27T00:10:18.024Z,953.00
2023-04-27T00:11:18.029Z,948.00
2023-04-27T00:12:17.990Z,943.00
2023-04-27T00:13:17.971Z,956.00
2023-04-27T00:14:17.941Z,930.00
2023-04-27T00:15:17.952Z,936.00
2023-04-27T00:16:17.955Z,953.00
2023-04-27T00:17:17.911Z,907.00
2023-04-27T00:18:17.894Z,954.00
2023-04-27T00:19:17.896Z,951.00
2023-04-27T00:20:17.860Z,928.00
2023-04-27T00:21:17.865Z,945.00
2023-04-27T00:22:17.844Z,955.00
2023-04-27T00:23:17.821Z,944.00
2023-04-27T00:24:17.809Z,941.00
2023-04-27T00:25:17.803Z,957.00
2023-04-27T00:26:17.794Z,923.00
2023-04-27T00:27:17.773Z,907.00
2023-04-27T00:28:17.766Z,953.00
2023-04-27T00:29:17.735Z,918.00
2023-04-27T00:30:17.717Z,942.00
2023-04-27T00:31:17.730Z,926.00
2023-04-27T00:32:17.699Z,970.00
2023-04-27T00:33:17.683Z,966.00
2023-04-27T00:34:17.664Z,939.00
2023-04-27T00:35:17.674Z,922.00
2023-04-27T00:36:17.670Z,956.00
2023-04-27T00:37:17.644Z,923.00
2023-04-27T00:38:17.643Z,922.00
2023-04-27T00:39:17.615Z,924.00
2023-04-27T00:40:17.607Z,929.00
2023-04-27T00:41:17.602Z,941.00
2023-04-27T00:42:17.592Z,927.00
2023-04-27T00:43:17.572Z,899.00
2023-04-27T00:44:17.561Z,954.00
2023-04-27T00:45:17.554Z,927.00
2023-04-27T00:46:17.575Z,933.00
2023-04-27T00:47:17.552Z,918.00
2023-04-27T00:48:17.530Z,918.00
2023-04-27T00:49:17.512Z,955.00
2023-04-27T00:50:17.509Z,926.00
2023-04-27T00:51:17.498Z,942.00
2023-04-27T00:52:17.481Z,913.00
2023-04-27T00:53:17.464Z,923.00
2023-04-27T00:54:17.467Z,895.00
2023-04-27T00:55:17.449Z,925.00
2023-04-27T00:56:17.438Z,912.00
2023-04-27T00:57:17.410Z,948.00
2023-04-27T00:58:17.401Z,907.00
2023-04-27T00:59:17.399Z,926.00
2023-04-27T01:00:17.377Z,936.00
2023-04-27T01:01:17.376Z,934.00
2023-04-27T01:02:17.479Z,926.00
2023-04-27T01:03:17.415Z,869.00
2023-04-27T01:04:17.395Z,909.00
2023-04-27T01:05:17.301Z,912.00
2023-04-27T01:06:17.308Z,962.00
2023-04-27T01:07:17.296Z,929.00
2023-04-27T01:08:17.270Z,877.00
2023-04-27T01:09:17.250Z,903.00
2023-04-27T01:10:17.234Z,896.00
2023-04-27T01:11:17.243Z,910.00
2023-04-27T01:12:17.218Z,877.00
2023-04-27T01:13:17.195Z,918.00
2023-04-27T01:14:17.263Z,933.00
2023-04-27T01:15:17.183Z,913.00
2023-04-27T01:16:17.222Z,916.00
2023-04-27T01:17:17.166Z,893.00
2023-04-27T01:18:17.145Z,908.00
2023-04-27T01:19:17.133Z,906.00
2023-04-27T01:20:17.123Z,918.00
2023-04-27T01:21:17.116Z,927.00
2023-04-27T01:22:17.101Z,922.00
2023-04-27T01:23:17.665Z,880.00
2023-04-27T01:24:17.078Z,925.00
2023-04-27T01:25:17.077Z,930.00
2023-04-27T01:26:17.066Z,926.00
2023-04-27T01:27:17.071Z,904.00
2023-04-27T01:28:17.062Z,875.00
2023-04-27T01:29:17.053Z,906.00
2023-04-27T01:30:17.046Z,906.00
2023-04-27T01:31:17.085Z,942.00
2023-04-27T01:32:17.024Z,887.00
2023-04-27T01:33:17.032Z,910.00
2023-04-27T01:34:17.028Z,866.00
2023-04-27T01:35:17.005Z,901.00
2023-04-27T01:36:16.996Z,893.00
2023-04-27T01:37:16.992Z,903.00
2023-04-27T01:38:16.969Z,901.00
2023-04-27T01:39:16.955Z,893.00
2023-04-27T01:40:16.938Z,936.00
2023-04-27T01:41:16.919Z,945.00
2023-04-27T01:42:16.903Z,901.00
2023-04-27T01:43:16.867Z,903.00
2023-04-27T01:44:16.854Z,944.00
2023-04-27T01:45:16.836Z,895.00
2023-04-27T01:46:16.858Z,869.00
2023-04-27T01:47:16.805Z,906.00
2023-04-27T01:48:16.771Z,907.00
2023-04-27T01:49:17.012Z,908.00
2023-04-27T01:50:16.708Z,934.00
2023-04-27T01:51:16.677Z,940.00
2023-04-27T01:52:16.652Z,887.00
2023-04-27T01:53:16.634Z,905.00
2023-04-27T01:54:16.594Z,896.00
2023-04-27T01:55:16.570Z,895.00
2023-04-27T01:56:16.553Z,932.00
2023-04-27T01:57:16.539Z,886.00
2023-04-27T01:58:16.510Z,907.00
2023-04-27T01:59:16.455Z,882.00
2023-04-27T02:00:16.415Z,915.00
2023-04-27T02:01:16.407Z,942.00
2023-04-27T02:02:16.381Z,911.00
2023-04-27T02:03:16.467Z,898.00
2023-04-27T02:04:16.500Z,921.00
2023-04-27T02:05:16.245Z,919.00
2023-04-27T02:06:16.214Z,892.00
2023-04-27T02:07:16.200Z,901.00
2023-04-27T02:08:16.139Z,904.00
2023-04-27T02:09:16.230Z,905.00
2023-04-27T02:10:16.090Z,911.00
2023-04-27T02:11:16.046Z,912.00
2023-04-27T02:12:16.029Z,919.00
2023-04-27T02:13:15.984Z,913.00
2023-04-27T02:14:15.949Z,899.00
2023-04-27T02:15:15.896Z,896.00
2023-04-27T02:16:15.894Z,903.00
2023-04-27T02:17:15.821Z,895.00
2023-04-27T02:18:15.783Z,887.00
2023-04-27T02:19:16.081Z,917.00
2023-04-27T02:20:15.709Z,891.00
2023-04-27T02:21:15.662Z,894.00
2023-04-27T02:22:15.627Z,906.00
2023-04-27T02:23:15.586Z,878.00
2023-04-27T02:24:15.552Z,890.00
2023-04-27T02:25:15.537Z,882.00
2023-04-27T02:26:15.467Z,907.00
2023-04-27T02:27:15.460Z,894.00
2023-04-27T02:28:15.434Z,889.00
2023-04-27T02:29:15.549Z,909.00
2023-04-27T02:30:15.406Z,889.00
2023-04-27T02:31:15.410Z,899.00
2023-04-27T02:32:15.350Z,905.00
2023-04-27T02:33:15.336Z,915.00
2023-04-27T02:34:15.303Z,924.00
2023-04-27T02:35:15.281Z,892.00
2023-04-27T02:36:15.255Z,906.00
2023-04-27T02:37:15.294Z,880.00
2023-04-27T02:38:15.180Z,883.00
2023-04-27T02:39:15.369Z,895.00
2023-04-27T02:40:15.139Z,897.00
2023-04-27T02:41:15.101Z,906.00
2023-04-27T02:42:15.092Z,881.00
2023-04-27T02:43:15.077Z,910.00
2023-04-27T02:44:15.036Z,897.00
2023-04-27T02:45:14.997Z,895.00
2023-04-27T02:46:14.981Z,884.00
2023-04-27T02:47:14.921Z,870.00
2023-04-27T02:48:14.893Z,886.00
2023-04-27T02:49:15.052Z,899.00
2023-04-27T02:50:14.821Z,914.00
2023-04-27T02:51:14.790Z,861.00
2023-04-27T02:52:14.753Z,888.00
2023-04-27T02:53:14.733Z,900.00
2023-04-27T02:54:14.698Z,906.00
2023-04-27T02:55:14.664Z,895.00
2023-04-27T02:56:14.622Z,871.00
2023-04-27T02:57:14.575Z,882.00
2023-04-27T02:58:14.559Z,887.00
2023-04-27T02:59:14.861Z,883.00
2023-04-27T03:00:14.492Z,884.00
2023-04-27T03:01:14.470Z,895.00
2023-04-27T03:02:14.478Z,881.00
2023-04-27T03:03:14.506Z,891.00
2023-04-27T03:04:14.491Z,904.00
2023-04-27T03:05:14.327Z,891.00
2023-04-27T03:06:14.287Z,901.00
2023-04-27T03:07:14.253Z,889.00
2023-04-27T03:08:14.382Z,898.00
2023-04-27T03:09:14.459Z,893.00
2023-04-27T03:10:14.190Z,892.00
2023-04-27T03:11:14.137Z,877.00
2023-04-27T03:12:14.109Z,894.00
2023-04-27T03:13:14.083Z,905.00
2023-04-27T03:14:14.049Z,875.00
2023-04-27T03:15:14.003Z,903.00
2023-04-27T03:16:14.028Z,874.00
2023-04-27T03:17:13.935Z,875.00
2023-04-27T03:18:13.928Z,869.00
2023-04-27T03:19:14.092Z,891.00
2023-04-27T03:20:13.885Z,884.00
2023-04-27T03:21:13.844Z,878.00
2023-04-27T03:22:13.825Z,886.00
2023-04-27T03:23:13.798Z,883.00
2023-04-27T03:24:13.792Z,897.00
2023-04-27T03:25:13.742Z,869.00
2023-04-27T03:26:13.698Z,890.00
2023-04-27T03:27:13.661Z,889.00
2023-04-27T03:28:13.636Z,908.00
2023-04-27T03:29:13.762Z,886.00
2023-04-27T03:30:13.563Z,901.00
2023-04-27T03:31:13.558Z,868.00
2023-04-27T03:32:13.583Z,898.00
2023-04-27T03:33:13.567Z,859.00
2023-04-27T03:34:13.506Z,859.00
2023-04-27T03:35:13.468Z,887.00
2023-04-27T03:36:13.449Z,863.00
2023-04-27T03:37:13.416Z,896.00
2023-04-27T03:38:13.404Z,886.00
2023-04-27T03:39:13.616Z,862.00
2023-04-27T03:40:13.335Z,872.00
2023-04-27T03:41:13.306Z,888.00
2023-04-27T03:42:13.258Z,886.00
2023-04-27T03:43:13.233Z,856.00
2023-04-27T03:44:13.216Z,889.00
2023-04-27T03:45:13.171Z,880.00
2023-04-27T03:46:13.182Z,904.00
2023-04-27T03:47:13.142Z,861.00
2023-04-27T03:48:13.111Z,867.00
2023-04-27T03:49:13.276Z,859.00
2023-04-27T03:50:13.062Z,881.00
2023-04-27T03:51:13.009Z,875.00
2023-04-27T03:52:12.976Z,884.00
2023-04-27T03:53:12.959Z,834.00
2023-04-27T03:54:12.926Z,869.00
2023-04-27T03:55:12.888Z,866.00
2023-04-27T03:56:12.845Z,870.00
2023-04-27T03:57:12.816Z,864.00
2023-04-27T03:58:12.796Z,879.00
2023-04-27T03:59:12.992Z,855.00
2023-04-27T04:00:12.717Z,880.00
2023-04-27T04:01:12.682Z,862.00
2023-04-27T04:02:12.714Z,892.00
2023-04-27T04:03:12.885Z,872.00
2023-04-27T04:04:12.748Z,855.00
2023-04-27T04:05:12.737Z,862.00
2023-04-27T04:06:12.505Z,877.00
2023-04-27T04:07:12.473Z,882.00
2023-04-27T04:08:12.438Z,873.00
2023-04-27T04:09:12.583Z,867.00
2023-04-27T04:10:12.376Z,877.00
2023-04-27T04:11:12.332Z,843.00
2023-04-27T04:12:12.307Z,879.00
2023-04-27T04:13:12.269Z,861.00
2023-04-27T04:14:12.232Z,890.00
2023-04-27T04:15:12.203Z,864.00
2023-04-27T04:16:12.189Z,855.00
2023-04-27T04:17:12.153Z,843.00
2023-04-27T04:18:12.190Z,864.00
2023-04-27T04:19:12.233Z,871.00
2023-04-27T04:20:12.041Z,879.00
2023-04-27T04:21:12.012Z,881.00
2023-04-27T04:22:12.087Z,882.00
2023-04-27T04:23:12.020Z,839.00
2023-04-27T04:24:11.910Z,861.00
2023-04-27T04:25:11.884Z,869.00
2023-04-27T04:26:11.842Z,846.00
2023-04-27T04:27:11.810Z,874.00
2023-04-27T04:28:11.777Z,877.00
2023-04-27T04:29:11.765Z,848.00
2023-04-27T04:30:11.709Z,858.00
2023-04-27T04:31:11.724Z,850.00
2023-04-27T04:32:11.651Z,837.00
2023-04-27T04:33:11.611Z,863.00
2023-04-27T04:34:11.584Z,849.00
2023-04-27T04:35:11.565Z,829.00
2023-04-27T04:36:11.537Z,851.00
2023-04-27T04:37:11.504Z,865.00
2023-04-27T04:38:11.489Z,885.00
2023-04-27T04:39:11.509Z,845.00
2023-04-27T04:40:11.412Z,870.00
2023-04-27T04:41:11.379Z,847.00
2023-04-27T04:42:11.360Z,856.00
2023-04-27T04:43:11.326Z,844.00
2023-04-27T04:44:11.297Z,845.00
2023-04-27T04:45:11.268Z,852.00
2023-04-27T04:46:11.293Z,840.00
2023-04-27T04:47:11.207Z,846.00
2023-04-27T04:48:11.171Z,851.00
2023-04-27T04:49:11.164Z,836.00
2023-04-27T04:50:11.106Z,854.00
2023-04-27T04:51:11.078Z,842.00
2023-04-27T04:52:11.067Z,877.00
2023-04-27T04:53:11.025Z,831.00
2023-04-27T04:54:11.000Z,854.00
2023-04-27T04:55:10.964Z,847.00
2023-04-27T04:56:10.926Z,863.00
2023-04-27T04:57:10.896Z,832.00
2023-04-27T04:58:10.876Z,825.00
2023-04-27T04:59:10.956Z,857.00
2023-04-27T05:00:10.820Z,837.00
2023-04-27T05:01:10.814Z,839.00
2023-04-27T05:02:10.746Z,858.00
2023-04-27T05:03:10.850Z,844.00
2023-04-27T05:04:10.921Z,844.00
2023-04-27T05:05:10.675Z,839.00
2023-04-27T05:06:10.632Z,843.00
2023-04-27T05:07:11.459Z,836.00
2023-04-27T05:08:10.563Z,893.00
2023-04-27T05:09:10.528Z,828.00
2023-04-27T05:10:10.480Z,835.00
2023-04-27T05:11:10.435Z,851.00
2023-04-27T05:12:10.403Z,822.00
2023-04-27T05:13:10.359Z,837.00
2023-04-27T05:14:10.308Z,845.00
2023-04-27T05:15:10.261Z,826.00
2023-04-27T05:16:10.250Z,832.00
2023-04-27T05:17:10.167Z,824.00
2023-04-27T05:18:10.129Z,660.00
2023-04-27T05:19:10.086Z,578.00
2023-04-27T05:20:10.084Z,578.00
2023-04-27T05:21:10.021Z,557.00
2023-04-27T05:22:09.998Z,531.00
2023-04-27T05:23:09.988Z,507.00
2023-04-27T05:24:09.996Z,508.00
2023-04-27T05:25:09.974Z,509.00
2023-04-27T05:26:09.958Z,512.00
2023-04-27T05:27:09.959Z,517.00
2023-04-27T05:28:10.093Z,526.00
2023-04-27T05:29:09.913Z,531.00
2023-04-27T05:30:09.942Z,535.00
2023-04-27T05:31:09.932Z,557.00
2023-04-27T05:32:09.972Z,594.00
2023-04-27T05:33:10.311Z,606.00
2023-04-27T05:34:09.870Z,616.00
2023-04-27T05:35:09.854Z,643.00
2023-04-27T05:36:09.831Z,668.00
2023-04-27T05:37:09.818Z,723.00
2023-04-27T05:38:09.863Z,804.00
2023-04-27T05:39:09.867Z,873.00
2023-04-27T05:40:09.873Z,963.00
2023-04-27T05:41:09.870Z,998.00
2023-04-27T05:42:09.844Z,1053.00
2023-04-27T05:43:09.822Z,1086.00
2023-04-27T05:44:09.786Z,1136.00
2023-04-27T05:45:09.754Z,1194.00
2023-04-27T05:46:09.752Z,1264.00
2023-04-27T05:47:09.719Z,1279.00
2023-04-27T05:48:09.706Z,1339.00
2023-04-27T05:49:09.733Z,1371.00
2023-04-27T05:50:09.732Z,1416.00
2023-04-27T05:51:09.750Z,1460.00
2023-04-27T05:52:09.749Z,1476.00
2023-04-27T05:53:09.743Z,1507.00
2023-04-27T05:54:09.734Z,1541.00
2023-04-27T05:55:09.740Z,1549.00
2023-04-27T05:56:09.720Z,1616.00
2023-04-27T05:57:09.696Z,1651.00
2023-04-27T05:58:09.680Z,1690.00
2023-04-27T05:59:09.684Z,1717.00
2023-04-27T06:00:09.646Z,1751.00
2023-04-27T06:01:09.596Z,1780.00
2023-04-27T06:02:09.579Z,1816.00
2023-04-27T06:03:09.655Z,1858.00
2023-04-27T06:04:09.570Z,1861.00
2023-04-27T06:05:09.554Z,1885.00
2023-04-27T06:06:09.437Z,1927.00
2023-04-27T06:07:10.264Z,1928.00
2023-04-27T06:08:09.352Z,1962.00
2023-04-27T06:09:09.315Z,2065.00
2023-04-27T06:10:09.266Z,2090.00
2023-04-27T06:11:09.227Z,2103.00
2023-04-27T06:12:09.168Z,2127.00
2023-04-27T06:13:09.144Z,2155.00
2023-04-27T06:14:09.088Z,2163.00
2023-04-27T06:15:09.025Z,2189.00
2023-04-27T06:16:09.066Z,2228.00
2023-04-27T06:17:08.924Z,2255.00
2023-04-27T06:18:08.913Z,2263.00
2023-04-27T06:19:08.833Z,2287.00
2023-04-27T06:20:08.778Z,2314.00
2023-04-27T06:21:09.309Z,2331.00
2023-04-27T06:22:08.656Z,2354.00
2023-04-27T06:23:08.608Z,2440.00
2023-04-27T06:24:08.574Z,2452.00
2023-04-27T06:25:08.558Z,2481.00
2023-04-27T06:26:08.655Z,2462.00
2023-04-27T06:27:08.532Z,2469.00
2023-04-27T06:28:08.493Z,2469.00
2023-04-27T06:29:08.443Z,2089.00
2023-04-27T06:30:08.426Z,1781.00
2023-04-27T06:31:08.487Z,1592.00
2023-04-27T06:32:08.627Z,1614.00
2023-04-27T06:33:08.517Z,1857.00
2023-04-27T06:34:08.491Z,1882.00
2023-04-27T06:35:08.524Z,1886.00
2023-04-27T06:36:09.278Z,1908.00
2023-04-27T06:37:08.466Z,1916.00
2023-04-27T06:38:08.456Z,1945.00
2023-04-27T06:39:08.422Z,1971.00
2023-04-27T06:40:08.376Z,2001.00
2023-04-27T06:41:08.364Z,2018.00
2023-04-27T06:42:08.319Z,2037.00
2023-04-27T06:43:08.255Z,2077.00
2023-04-27T06:44:08.199Z,2094.00
2023-04-27T06:45:08.165Z,2124.00
2023-04-27T06:46:08.153Z,2150.00
2023-04-27T06:47:08.092Z,2163.00
2023-04-27T06:48:08.068Z,2192.00
2023-04-27T06:49:08.001Z,2220.00
2023-04-27T06:50:07.997Z,2246.00
2023-04-27T06:51:08.004Z,2262.00
2023-04-27T06:52:07.998Z,2285.00
2023-04-27T06:53:07.980Z,2292.00
2023-04-27T06:54:07.984Z,2339.00
2023-04-27T06:55:07.992Z,2358.00
2023-04-27T06:56:07.990Z,2377.00
2023-04-27T06:57:07.981Z,2401.00
2023-04-27T06:58:07.971Z,2425.00
2023-04-27T06:59:08.186Z,2458.00
2023-04-27T07:00:08.114Z,2473.00
2023-04-27T07:01:08.872Z,2493.00
2023-04-27T07:02:07.956Z,2505.00
2023-04-27T07:03:08.080Z,2524.00
2023-04-27T07:04:08.043Z,2529.00
2023-04-27T07:05:07.947Z,2576.00
2023-04-27T07:06:07.948Z,2570.00
2023-04-27T07:07:07.922Z,2584.00
2023-04-27T07:08:08.746Z,2593.00
2023-04-27T07:09:16.335Z,2626.00
2023-04-27T07:10:08.827Z,2628.00
2023-04-27T07:11:07.772Z,2632.00
2023-04-27T07:12:07.692Z,2645.00
2023-04-27T07:13:09.200Z,2681.00
2023-04-27T07:14:07.555Z,2745.00
2023-04-27T07:15:07.485Z,2751.00
2023-04-27T07:16:07.467Z,2779.00
2023-04-27T07:17:07.442Z,2820.00
2023-04-27T07:18:07.875Z,2810.00
2023-04-27T07:19:07.194Z,2787.00
2023-04-27T07:20:07.821Z,2762.00
2023-04-27T07:21:07.079Z,2749.00
2023-04-27T07:22:07.022Z,2741.00
2023-04-27T07:23:07.021Z,2730.00
2023-04-27T07:24:07.017Z,2716.00
2023-04-27T07:25:07.034Z,2732.00
2023-04-27T07:26:07.761Z,2708.00
2023-04-27T07:27:08.831Z,2703.00
2023-04-27T07:28:07.027Z,2703.00
2023-04-27T07:29:18.751Z,2703.00
2023-04-27T07:30:07.954Z,2704.00
2023-04-27T07:31:06.910Z,2707.00
2023-04-27T07:32:07.024Z,2706.00
2023-04-27T07:33:06.903Z,2697.00
2023-04-27T07:34:06.714Z,2664.00
2023-04-27T07:35:06.649Z,2671.00
2023-04-27T07:36:06.707Z,2671.00
2023-04-27T07:37:06.536Z,2658.00
2023-04-27T07:38:06.484Z,2669.00
2023-04-27T07:39:06.437Z,2652.00
2023-04-27T07:40:06.378Z,2633.00
2023-04-27T07:41:06.315Z,2642.00
2023-04-27T07:42:06.259Z,2630.00
2023-04-27T07:43:06.229Z,2619.00
2023-04-27T07:44:06.175Z,2607.00
2023-04-27T07:45:06.835Z,2618.00
2023-04-27T07:46:06.118Z,2595.00
2023-04-27T07:47:06.000Z,2603.00
2023-04-27T07:48:06.004Z,2599.00
2023-04-27T07:49:05.872Z,2587.00
2023-04-27T07:50:05.819Z,2591.00
2023-04-27T07:51:05.760Z,2566.00
2023-04-27T07:52:05.700Z,2573.00
2023-04-27T07:53:05.646Z,2572.00
2023-04-27T07:54:05.632Z,2558.00
2023-04-27T07:55:05.537Z,2553.00
2023-04-27T07:56:05.552Z,2546.00
2023-04-27T07:57:05.401Z,2540.00
2023-04-27T07:58:05.843Z,2540.00
2023-04-27T07:59:05.279Z,2535.00
2023-04-27T08:00:05.237Z,2540.00
2023-04-27T08:01:05.185Z,2534.00
2023-04-27T08:02:18.334Z,2522.00
2023-04-27T08:03:06.324Z,2523.00
2023-04-27T08:04:05.315Z,2523.00
2023-04-27T08:05:05.367Z,2523.00
2023-04-27T08:06:05.184Z,2514.00
2023-04-27T08:07:05.223Z,2506.00
2023-04-27T08:08:04.884Z,2507.00
2023-04-27T08:09:04.725Z,2493.00
2023-04-27T08:10:04.681Z,2492.00
2023-04-27T08:11:04.616Z,2481.00
2023-04-27T08:12:04.568Z,2476.00
2023-04-27T08:13:04.520Z,2471.00
2023-04-27T08:14:04.465Z,2475.00
2023-04-27T08:15:06.378Z,1590.00
2023-04-27T08:16:05.374Z,1504.00
2023-04-27T08:17:04.510Z,1599.00
2023-04-27T08:18:04.485Z,1623.00
2023-04-27T08:19:04.502Z,1645.00
2023-04-27T08:20:04.525Z,1622.00
2023-04-27T08:21:04.513Z,1648.00
2023-04-27T08:22:04.544Z,1672.00
2023-04-27T08:23:04.536Z,1649.00
2023-04-27T08:24:04.524Z,1696.00
2023-04-27T08:25:04.502Z,1703.00
2023-04-27T08:26:04.471Z,1695.00
2023-04-27T08:27:04.465Z,1700.00
2023-04-27T08:28:04.447Z,1704.00
2023-04-27T08:29:15.502Z,1704.00
2023-04-27T08:30:05.424Z,1704.00
2023-04-27T08:31:04.427Z,1693.00
2023-04-27T08:32:04.349Z,1690.00
2023-04-27T08:33:04.399Z,1677.00
2023-04-27T08:34:04.205Z,1678.00
2023-04-27T08:35:04.165Z,1671.00
2023-04-27T08:36:04.107Z,1667.00
2023-04-27T08:37:04.054Z,1659.00
2023-04-27T08:38:04.006Z,1655.00
2023-04-27T08:39:03.963Z,1669.00
2023-04-27T08:40:03.950Z,1669.00
2023-04-27T08:41:18.025Z,1656.00
2023-04-27T08:42:04.865Z,1657.00
2023-04-27T08:43:03.811Z,1659.00
2023-04-27T08:44:04.345Z,1658.00
2023-04-27T08:45:03.715Z,1654.00
2023-04-27T08:46:03.695Z,1665.00
2023-04-27T08:47:03.653Z,1667.00
2023-04-27T08:48:03.707Z,1665.00
2023-04-27T08:49:03.515Z,1656.00
2023-04-27T08:50:03.463Z,1650.00
2023-04-27T08:51:03.401Z,1645.00
2023-04-27T08:52:03.353Z,1650.00
2023-04-27T08:53:03.300Z,1648.00
2023-04-27T08:54:03.255Z,1639.00
2023-04-27T08:55:03.205Z,1629.00
2023-04-27T08:56:03.150Z,1640.00
2023-04-27T08:57:03.093Z,1636.00
2023-04-27T08:58:03.037Z,1632.00
2023-04-27T08:59:02.991Z,1627.00
2023-04-27T09:00:02.954Z,1637.00
2023-04-27T09:01:02.915Z,1632.00
2023-04-27T09:02:02.943Z,1632.00
2023-04-27T09:03:02.982Z,1636.00
2023-04-27T09:04:03.047Z,1625.00
2023-04-27T09:05:02.970Z,1614.00
2023-04-27T09:06:05.604Z,1619.00
2023-04-27T09:07:02.697Z,1624.00
2023-04-27T09:08:02.639Z,1624.00
2023-04-27T09:09:02.601Z,1620.00
2023-04-27T09:10:02.521Z,1614.00
2023-04-27T09:11:02.503Z,1627.00
2023-04-27T09:12:02.401Z,1617.00
2023-04-27T09:13:02.362Z,1627.00
2023-04-27T09:14:02.312Z,1618.00
2023-04-27T09:15:02.256Z,1583.00
2023-04-27T09:16:02.203Z,1611.00
2023-04-27T09:17:02.141Z,1606.00
2023-04-27T09:18:02.126Z,1638.00
2023-04-27T09:19:02.035Z,1617.00
2023-04-27T09:20:01.982Z,1634.00
2023-04-27T09:21:01.930Z,1632.00
2023-04-27T09:22:01.871Z,1623.00
2023-04-27T09:23:01.813Z,1642.00
2023-04-27T09:24:01.756Z,1653.00
2023-04-27T09:25:01.720Z,1659.00
2023-04-27T09:26:01.647Z,1655.00
2023-04-27T09:27:01.614Z,1667.00
2023-04-27T09:28:01.601Z,1674.00
2023-04-27T09:29:01.512Z,1665.00
2023-04-27T09:30:01.471Z,1656.00
2023-04-27T09:31:01.404Z,1682.00
2023-04-27T09:32:01.383Z,1667.00
2023-04-27T09:33:01.382Z,1678.00
2023-04-27T09:34:01.281Z,1662.00
2023-04-27T09:35:01.254Z,1686.00
2023-04-27T09:36:01.153Z,1688.00
2023-04-27T09:37:01.123Z,1667.00
2023-04-27T09:38:01.072Z,1679.00
2023-04-27T09:39:00.974Z,1681.00
2023-04-27T09:40:00.920Z,1682.00
2023-04-27T09:41:01.818Z,1687.00
2023-04-27T09:42:00.809Z,1676.00
2023-04-27T09:43:00.757Z,1683.00
2023-04-27T09:44:00.706Z,1672.00
2023-04-27T09:45:00.828Z,1683.00
2023-04-27T09:46:00.580Z,1677.00
2023-04-27T09:47:00.531Z,1661.00
2023-04-27T09:48:00.490Z,1679.00
2023-04-27T09:49:00.414Z,1675.00
2023-04-27T09:50:00.352Z,1686.00
2023-04-27T09:51:00.319Z,1674.00
2023-04-27T09:52:00.254Z,1675.00
2023-04-27T09:53:00.208Z,1679.00
2023-04-27T09:54:00.167Z,1679.00
2023-04-27T09:55:00.873Z,1650.00
2023-04-27T09:56:00.073Z,1655.00
2023-04-27T09:57:00.000Z,1644.00
2023-04-27T09:57:59.957Z,1634.00
2023-04-27T09:58:59.909Z,1632.00
2023-04-27T09:59:59.829Z,1632.00
2023-04-27T10:00:59.804Z,1625.00
2023-04-27T10:02:02.767Z,1622.00
2023-04-27T10:03:00.722Z,1624.00
2023-04-27T10:03:59.835Z,1625.00
2023-04-27T10:04:59.651Z,1632.00
2023-04-27T10:05:59.514Z,1614.00
2023-04-27T10:06:59.450Z,1640.00
2023-04-27T10:07:59.388Z,1649.00
2023-04-27T10:08:59.342Z,1670.00
2023-04-27T10:09:59.279Z,1678.00
2023-04-27T10:10:59.236Z,1693.00
2023-04-27T10:11:59.174Z,1720.00
2023-04-27T10:12:59.131Z,1720.00
2023-04-27T10:13:59.068Z,1741.00
2023-04-27T10:14:59.015Z,1785.00
2023-04-27T10:15:58.952Z,1844.00
2023-04-27T10:16:58.993Z,1906.00
2023-04-27T10:17:58.994Z,1975.00
2023-04-27T10:18:58.786Z,1982.00
2023-04-27T10:19:58.842Z,1988.00
2023-04-27T10:20:59.399Z,1964.00
2023-04-27T10:21:58.610Z,1966.00
2023-04-27T10:22:58.582Z,1974.00
2023-04-27T10:23:58.482Z,2000.00
2023-04-27T10:24:58.421Z,2046.00
2023-04-27T10:25:58.375Z,2126.00
2023-04-27T10:26:58.290Z,2145.00
2023-04-27T10:27:58.237Z,2163.00
2023-04-27T10:28:58.903Z,2165.00
2023-04-27T10:29:58.096Z,2193.00
2023-04-27T10:30:58.089Z,2209.00
2023-04-27T10:31:57.978Z,2227.00
2023-04-27T10:32:57.912Z,2259.00
2023-04-27T10:33:57.834Z,2281.00
2023-04-27T10:34:57.782Z,2294.00
2023-04-27T10:35:57.731Z,2299.00
2023-04-27T10:36:57.647Z,2323.00
2023-04-27T10:37:57.574Z,2333.00
2023-04-27T10:38:58.402Z,2351.00
2023-04-27T10:39:57.464Z,2351.00
2023-04-27T10:40:57.395Z,2364.00
2023-04-27T10:41:57.323Z,2381.00
2023-04-27T10:42:57.262Z,2399.00
2023-04-27T10:43:57.190Z,2413.00
2023-04-27T10:44:57.164Z,2422.00
2023-04-27T10:45:57.099Z,2446.00
2023-04-27T10:46:57.407Z,2472.00
2023-04-27T10:47:56.989Z,2478.00
2023-04-27T10:48:56.866Z,2483.00
2023-04-27T10:49:56.810Z,2489.00
2023-04-27T10:50:56.736Z,2499.00
2023-04-27T10:51:56.698Z,2530.00
2023-04-27T10:52:56.617Z,2524.00
2023-04-27T10:53:56.555Z,2551.00
2023-04-27T10:54:56.508Z,2537.00
2023-04-27T10:55:56.448Z,2549.00
2023-04-27T10:56:56.393Z,2561.00
2023-04-27T10:57:56.324Z,2584.00
2023-04-27T10:58:56.271Z,2597.00
2023-04-27T10:59:56.199Z,2614.00
2023-04-27T11:00:56.119Z,2620.00
2023-04-27T11:01:56.094Z,2649.00
2023-04-27T11:02:56.062Z,2660.00
2023-04-27T11:03:56.008Z,2638.00
2023-04-27T11:04:55.938Z,2651.00
2023-04-27T11:05:58.043Z,2629.00
2023-04-27T11:06:55.704Z,2633.00
2023-04-27T11:07:55.644Z,2631.00
2023-04-27T11:08:55.550Z,2614.00
2023-04-27T11:09:55.492Z,2601.00
2023-04-27T11:10:55.444Z,2577.00
2023-04-27T11:11:55.427Z,2551.00
2023-04-27T11:12:55.399Z,2546.00
2023-04-27T11:13:55.411Z,2547.00
2023-04-27T11:14:55.385Z,2536.00
2023-04-27T11:15:55.471Z,2523.00
2023-04-27T11:16:55.372Z,2528.00
2023-04-27T11:17:55.404Z,2518.00
2023-04-27T11:18:55.383Z,2507.00
2023-04-27T11:19:55.383Z,2516.00
2023-04-27T11:20:55.394Z,2509.00
2023-04-27T11:21:55.409Z,2516.00
2023-04-27T11:22:55.428Z,2492.00
2023-04-27T11:23:55.452Z,2484.00
2023-04-27T11:24:55.450Z,2474.00
2023-04-27T11:25:55.466Z,2472.00
2023-04-27T11:26:55.468Z,2460.00
2023-04-27T11:27:55.489Z,2464.00
2023-04-27T11:28:55.513Z,2466.00
2023-04-27T11:29:55.546Z,2450.00
2023-04-27T11:30:55.549Z,2434.00
2023-04-27T11:31:55.589Z,2412.00
2023-04-27T11:32:55.516Z,2422.00
2023-04-27T11:33:56.131Z,2409.00
2023-04-27T11:34:57.213Z,2410.00
2023-04-27T11:35:55.363Z,2403.00
2023-04-27T11:36:58.728Z,2384.00
2023-04-27T11:37:56.232Z,2386.00
2023-04-27T11:38:55.188Z,2387.00
2023-04-27T11:39:55.113Z,2387.00
2023-04-27T11:40:55.056Z,2385.00
2023-04-27T11:41:54.995Z,2368.00
2023-04-27T11:42:54.946Z,2377.00
2023-04-27T11:43:54.938Z,2359.00
2023-04-27T11:44:54.833Z,2342.00
2023-04-27T11:45:54.771Z,2344.00
2023-04-27T11:46:54.771Z,2326.00
2023-04-27T11:47:54.667Z,2330.00
2023-04-27T11:48:54.596Z,2329.00
2023-04-27T11:49:54.551Z,2313.00
2023-04-27T11:50:54.482Z,2317.00
2023-04-27T11:51:54.428Z,2295.00
2023-04-27T11:52:54.364Z,2297.00
2023-04-27T11:53:54.318Z,2282.00
2023-04-27T11:54:54.258Z,2285.00
2023-04-27T11:55:54.200Z,2276.00
2023-04-27T11:56:54.146Z,2284.00
2023-04-27T11:57:54.093Z,2258.00
2023-04-27T11:58:54.056Z,2270.00
2023-04-27T11:59:53.992Z,2254.00
2023-04-27T12:00:53.929Z,2250.00
2023-04-27T12:01:53.899Z,2238.00
2023-04-27T12:02:53.940Z,2236.00
2023-04-27T12:03:53.922Z,2244.00
2023-04-27T12:04:53.913Z,2238.00
2023-04-27T12:05:53.735Z,2205.00
2023-04-27T12:06:53.628Z,2207.00
2023-04-27T12:07:53.578Z,2199.00
2023-04-27T12:08:53.534Z,2199.00
2023-04-27T12:09:53.487Z,2187.00
2023-04-27T12:10:53.462Z,2189.00
2023-04-27T12:11:53.426Z,2186.00
2023-04-27T12:12:53.384Z,2182.00
2023-04-27T12:13:53.342Z,2178.00
2023-04-27T12:14:53.298Z,2166.00
2023-04-27T12:15:53.251Z,2157.00